createdAt,value
2022-11-25T00:01:33.112Z,2.40
2022-11-25T00:04:01.202Z,1.77
2022-11-25T00:06:34.252Z,1.50
2022-11-25T00:09:08.196Z,1.67
2022-11-25T00:11:37.428Z,5.87
2022-11-25T00:14:05.474Z,2.50
2022-11-25T00:16:32.515Z,2.87
2022-11-25T00:18:59.707Z,0.97
2022-11-25T00:21:31.844Z,4.63
2022-11-25T00:24:02.321Z,8.53
2022-11-25T00:26:32.735Z,5.33
2022-11-25T00:29:02.581Z,4.03
2022-11-25T00:31:33.712Z,4.23
2022-11-25T00:34:00.745Z,1.43
2022-11-25T00:36:36.404Z,3.50
2022-11-25T00:39:08.198Z,5.63
2022-11-25T00:41:54.004Z,5.27
2022-11-25T00:44:38.044Z,4.93
2022-11-25T00:47:15.312Z,5.70
2022-11-25T00:49:46.042Z,5.33
2022-11-25T00:52:37.039Z,6.67
2022-11-25T00:55:05.308Z,4.70
2022-11-25T00:57:32.230Z,5.93
2022-11-25T00:59:59.148Z,6.47
2022-11-25T01:02:26.265Z,5.27
2022-11-25T01:04:53.284Z,3.63
2022-11-25T01:07:20.252Z,5.67
2022-11-25T01:09:49.250Z,4.47
2022-11-25T01:12:16.242Z,2.70
2022-11-25T01:14:43.321Z,7.03
2022-11-25T01:17:10.245Z,6.50
2022-11-25T01:19:40.512Z,3.10
2022-11-25T01:22:09.511Z,3.30
2022-11-25T01:24:36.692Z,1.93
2022-11-25T01:27:03.862Z,3.77
2022-11-25T01:29:30.827Z,2.63
2022-11-25T01:31:57.914Z,2.37
2022-11-25T01:34:27.226Z,5.33
2022-11-25T01:36:54.146Z,6.50
2022-11-25T01:39:28.670Z,4.87
2022-11-25T01:41:58.979Z,2.87
2022-11-25T01:44:31.698Z,6.67
2022-11-25T01:47:16.935Z,4.67
2022-11-25T01:50:11.140Z,5.77
2022-11-25T01:52:46.544Z,7.13
2022-11-25T01:55:20.518Z,3.07
2022-11-25T01:57:54.094Z,6.20
2022-11-25T02:00:21.905Z,10.37
2022-11-25T02:02:52.214Z,10.30
2022-11-25T02:05:32.375Z,12.80
2022-11-25T02:08:01.088Z,12.10
2022-11-25T02:10:32.291Z,12.83
2022-11-25T02:13:00.417Z,10.57
2022-11-25T02:15:29.484Z,14.73
2022-11-25T02:17:56.715Z,13.93
2022-11-25T02:20:25.031Z,14.97
2022-11-25T02:23:07.110Z,10.67
2022-11-25T02:25:40.442Z,10.37
2022-11-25T02:28:13.769Z,14.70
2022-11-25T02:30:41.162Z,13.43
2022-11-25T02:33:08.494Z,15.10
2022-11-25T02:35:41.641Z,14.20
2022-11-25T02:38:15.452Z,9.67
2022-11-25T02:41:02.984Z,9.57
2022-11-25T02:43:29.953Z,8.37
2022-11-25T02:46:10.693Z,12.73
2022-11-25T02:49:07.424Z,8.27
2022-11-25T02:51:31.701Z,12.43
2022-11-25T02:53:59.551Z,6.97
2022-11-25T02:56:31.633Z,8.07
2022-11-25T02:58:59.094Z,10.97
2022-11-25T03:01:26.433Z,15.43
2022-11-25T03:03:53.430Z,13.43
2022-11-25T03:06:20.440Z,13.57
2022-11-25T03:08:47.497Z,10.10
2022-11-25T03:11:14.736Z,9.53
2022-11-25T03:13:42.036Z,11.13
2022-11-25T03:16:09.207Z,8.93
2022-11-25T03:18:36.656Z,12.17
2022-11-25T03:21:03.882Z,8.23
2022-11-25T03:23:30.930Z,8.37
2022-11-25T03:25:58.037Z,12.93
2022-11-25T03:28:24.966Z,9.50
2022-11-25T03:30:52.138Z,9.13
2022-11-25T03:33:19.162Z,6.67
2022-11-25T03:35:48.248Z,10.93
2022-11-25T03:38:15.211Z,12.13
2022-11-25T03:40:42.586Z,10.50
2022-11-25T03:43:09.500Z,11.20
2022-11-25T03:45:36.439Z,13.10
2022-11-25T03:48:03.581Z,9.43
2022-11-25T03:50:30.614Z,10.27
2022-11-25T03:52:57.570Z,7.83
2022-11-25T03:55:24.502Z,8.13
2022-11-25T03:57:51.419Z,7.77
2022-11-25T04:00:18.543Z,9.23
2022-11-25T04:02:45.768Z,9.40
2022-11-25T04:05:12.794Z,7.87
2022-11-25T04:07:39.769Z,13.37
2022-11-25T04:10:07.905Z,10.27
2022-11-25T04:12:46.735Z,10.83
2022-11-25T04:15:16.094Z,8.07
2022-11-25T04:17:43.093Z,7.00
2022-11-25T04:20:12.469Z,9.57
2022-11-25T04:22:39.963Z,4.33
2022-11-25T04:25:09.485Z,7.40
2022-11-25T04:27:38.393Z,9.67
2022-11-25T04:30:06.912Z,7.93
2022-11-25T04:32:33.950Z,10.57
2022-11-25T04:35:00.938Z,10.20
2022-11-25T04:37:28.006Z,11.10
2022-11-25T04:39:54.980Z,11.10
2022-11-25T04:42:34.792Z,7.50
2022-11-25T04:45:24.741Z,14.73
2022-11-25T04:47:52.664Z,9.03
2022-11-25T04:50:23.020Z,7.37
2022-11-25T04:52:50.277Z,11.73
2022-11-25T04:55:17.303Z,5.87
2022-11-25T04:57:44.296Z,6.33
2022-11-25T05:00:15.002Z,9.13
2022-11-25T05:02:42.202Z,6.13
2022-11-25T05:05:09.345Z,7.10
2022-11-25T05:07:36.418Z,6.87
2022-11-25T05:10:03.736Z,7.50
2022-11-25T05:12:31.049Z,10.70
2022-11-25T05:14:58.331Z,7.23
2022-11-25T05:17:30.812Z,9.90
2022-11-25T05:19:57.909Z,6.97
2022-11-25T05:22:30.592Z,6.27
2022-11-25T05:24:58.412Z,6.03
2022-11-25T05:27:26.947Z,6.70
2022-11-25T05:29:56.281Z,8.40
2022-11-25T05:32:23.603Z,9.47
2022-11-25T05:34:50.517Z,5.93
2022-11-25T05:37:21.257Z,5.03
2022-11-25T05:39:51.514Z,6.97
2022-11-25T05:42:18.748Z,7.93
2022-11-25T05:44:45.671Z,10.33
2022-11-25T05:47:12.564Z,9.03
2022-11-25T05:49:39.560Z,8.93
2022-11-25T05:52:06.459Z,9.67
2022-11-25T05:54:33.524Z,8.63
2022-11-25T05:57:00.573Z,8.27
2022-11-25T05:59:27.474Z,10.40
2022-11-25T06:01:54.708Z,7.70
2022-11-25T06:04:21.641Z,7.97
2022-11-25T06:06:48.718Z,10.20
2022-11-25T06:09:15.625Z,7.67
2022-11-25T06:11:42.528Z,10.83
2022-11-25T06:14:09.817Z,10.50
2022-11-25T06:16:36.774Z,9.93
2022-11-25T06:19:07.480Z,12.80
2022-11-25T06:21:34.407Z,10.00
2022-11-25T06:24:01.558Z,14.00
2022-11-25T06:26:28.686Z,12.47
2022-11-25T06:28:56.828Z,13.03
2022-11-25T06:31:27.584Z,12.93
2022-11-25T06:33:55.013Z,9.53
2022-11-25T06:36:23.009Z,17.20
2022-11-25T06:38:53.472Z,16.83
2022-11-25T06:41:22.342Z,17.47
2022-11-25T06:43:49.591Z,19.13
2022-11-25T06:46:24.351Z,18.70
2022-11-25T06:48:53.838Z,22.80
2022-11-25T06:51:20.930Z,15.10
2022-11-25T06:53:48.413Z,22.07
2022-11-25T06:56:27.484Z,21.17
2022-11-25T06:58:55.834Z,19.70
2022-11-25T07:01:28.956Z,14.17
2022-11-25T07:04:04.237Z,13.63
2022-11-25T07:06:33.394Z,13.03
2022-11-25T07:09:01.326Z,18.37
2022-11-25T07:11:38.393Z,15.80
2022-11-25T07:14:10.751Z,12.20
2022-11-25T07:16:41.246Z,24.53
2022-11-25T07:19:13.587Z,25.60
2022-11-25T07:21:41.530Z,21.37
2022-11-25T07:24:09.778Z,17.30
2022-11-25T07:26:38.409Z,17.93
2022-11-25T07:29:23.495Z,15.43
2022-11-25T07:31:56.156Z,18.80
2022-11-25T07:34:26.118Z,16.10
2022-11-25T07:36:53.263Z,15.97
2022-11-25T07:39:22.715Z,15.33
2022-11-25T07:41:52.080Z,19.87
2022-11-25T07:44:20.026Z,11.60
2022-11-25T07:46:49.298Z,17.33
2022-11-25T07:49:22.434Z,11.40
2022-11-25T07:51:59.779Z,18.00
2022-11-25T07:54:27.168Z,12.53
2022-11-25T07:56:54.118Z,13.70
2022-11-25T07:59:22.724Z,10.03
2022-11-25T08:01:54.969Z,22.73
2022-11-25T08:04:22.959Z,23.43
2022-11-25T08:06:52.582Z,15.53
2022-11-25T08:09:23.893Z,18.50
2022-11-25T08:11:52.055Z,15.77
2022-11-25T08:14:19.674Z,15.80
2022-11-25T08:16:46.687Z,15.47
2022-11-25T08:19:16.682Z,13.67
2022-11-25T08:21:43.684Z,13.33
2022-11-25T08:24:19.945Z,16.97
2022-11-25T08:26:47.863Z,17.97
2022-11-25T08:29:16.772Z,16.67
2022-11-25T08:31:44.131Z,13.10
2022-11-25T08:34:20.072Z,15.73
2022-11-25T08:36:48.723Z,17.70
2022-11-25T08:39:44.071Z,15.57
2022-11-25T08:42:05.886Z,12.57
2022-11-25T08:44:32.827Z,14.63
2022-11-25T08:46:59.948Z,20.33
2022-11-25T08:49:29.265Z,19.40
2022-11-25T08:51:56.285Z,14.27
2022-11-25T08:54:23.214Z,14.43
2022-11-25T08:56:50.122Z,13.10
2022-11-25T08:59:17.016Z,17.73
2022-11-25T09:01:44.260Z,14.37
2022-11-25T09:04:11.465Z,19.57
2022-11-25T09:06:39.240Z,19.17
2022-11-25T09:09:06.818Z,13.37
2022-11-25T09:11:33.872Z,14.07
2022-11-25T09:14:00.925Z,8.97
2022-11-25T09:16:28.475Z,12.27
2022-11-25T09:18:56.295Z,15.77
2022-11-25T09:21:25.051Z,12.43
2022-11-25T09:23:54.047Z,11.57
2022-11-25T09:26:31.100Z,15.53
2022-11-25T09:28:58.535Z,16.77
2022-11-25T09:31:25.563Z,9.63
2022-11-25T09:33:52.773Z,12.23
2022-11-25T09:36:21.034Z,13.20
2022-11-25T09:38:48.276Z,16.03
2022-11-25T09:42:12.915Z,10.23
2022-11-25T09:45:44.323Z,13.60
2022-11-25T09:48:49.948Z,12.30
2022-11-25T09:52:01.463Z,13.13
2022-11-25T09:55:12.878Z,13.33
2022-11-25T09:58:27.876Z,14.93
2022-11-25T10:00:54.815Z,16.10
2022-11-25T10:03:41.598Z,11.83
2022-11-25T10:06:31.371Z,11.40
2022-11-25T10:09:04.898Z,15.20
2022-11-25T10:12:01.233Z,16.93
2022-11-25T10:14:45.364Z,19.53
2022-11-25T10:17:50.165Z,12.73
2022-11-25T10:20:37.530Z,18.07
2022-11-25T10:23:32.880Z,18.10
2022-11-25T10:26:13.010Z,13.63
2022-11-25T10:28:52.047Z,16.20
2022-11-25T10:31:29.116Z,19.37
2022-11-25T10:33:59.465Z,15.80
2022-11-25T10:36:38.806Z,17.83
2022-11-25T10:39:15.060Z,21.70
2022-11-25T10:42:10.081Z,19.87
2022-11-25T10:44:40.882Z,18.47
2022-11-25T10:47:53.802Z,15.60
2022-11-25T10:50:33.864Z,17.23
2022-11-25T10:53:12.219Z,15.40
2022-11-25T10:55:39.437Z,16.60
2022-11-25T10:58:31.083Z,16.47
2022-11-25T11:01:17.002Z,16.50
2022-11-25T11:03:55.109Z,14.23
2022-11-25T11:06:51.423Z,18.77
2022-11-25T11:09:40.980Z,16.70
2022-11-25T11:12:20.654Z,16.13
2022-11-25T11:14:48.285Z,15.27
2022-11-25T11:17:34.817Z,15.23
2022-11-25T11:20:25.664Z,14.77
2022-11-25T11:23:08.364Z,19.83
2022-11-25T11:25:41.655Z,17.23
2022-11-25T11:28:36.988Z,14.93
2022-11-25T11:31:23.077Z,17.93
2022-11-25T11:34:01.356Z,17.37
2022-11-25T11:36:55.960Z,16.40
2022-11-25T11:39:35.308Z,15.40
2022-11-25T11:42:18.856Z,16.60
2022-11-25T11:45:25.644Z,14.23
2022-11-25T11:48:13.438Z,14.93
2022-11-25T11:50:55.973Z,18.70
2022-11-25T11:53:38.482Z,10.97
2022-11-25T11:56:38.850Z,16.90
2022-11-25T11:59:46.985Z,19.87
2022-11-25T12:02:37.712Z,15.13
2022-11-25T12:05:10.623Z,15.73
2022-11-25T12:08:13.577Z,18.63
2022-11-25T12:11:01.996Z,12.03
2022-11-25T12:13:46.695Z,16.77
2022-11-25T12:16:17.487Z,17.03
2022-11-25T12:19:22.452Z,15.03
2022-11-25T12:22:21.660Z,16.93
2022-11-25T12:25:08.812Z,20.47
2022-11-25T12:27:44.494Z,19.03
2022-11-25T12:30:21.211Z,21.87
2022-11-25T12:33:15.037Z,24.73
2022-11-25T12:36:06.363Z,19.10
2022-11-25T12:38:41.955Z,22.03
2022-11-25T12:41:42.488Z,21.40
2022-11-25T12:44:19.662Z,20.10
2022-11-25T12:46:52.307Z,29.00
2022-11-25T12:49:26.733Z,19.13
2022-11-25T12:52:35.632Z,20.50
2022-11-25T12:55:21.405Z,21.73
2022-11-25T12:58:28.053Z,16.20
2022-11-25T13:01:26.089Z,26.43
2022-11-25T13:04:19.867Z,19.10
2022-11-25T13:07:27.510Z,18.63
2022-11-25T13:10:37.054Z,25.07
2022-11-25T13:13:44.214Z,21.07
2022-11-25T13:16:12.041Z,25.97
2022-11-25T13:18:43.239Z,19.67
2022-11-25T13:21:13.283Z,19.83
2022-11-25T13:23:49.491Z,25.50
2022-11-25T13:26:28.949Z,21.57
2022-11-25T13:28:57.135Z,16.33
2022-11-25T13:31:35.543Z,19.63
2022-11-25T13:34:32.978Z,21.27
2022-11-25T13:37:02.776Z,16.67
2022-11-25T13:39:33.844Z,27.70
2022-11-25T13:42:22.415Z,23.23
2022-11-25T13:44:53.785Z,20.43
2022-11-25T13:47:38.833Z,21.17
2022-11-25T13:50:22.231Z,17.53
2022-11-25T13:53:06.542Z,22.47
2022-11-25T13:55:39.118Z,21.87
2022-11-25T13:58:26.859Z,16.27
2022-11-25T14:01:29.448Z,20.43
2022-11-25T14:04:00.296Z,27.03
2022-11-25T14:06:36.523Z,25.47
2022-11-25T14:09:22.337Z,24.70
2022-11-25T14:12:13.919Z,19.40
2022-11-25T14:15:33.282Z,25.50
2022-11-25T14:22:20.263Z,21.53
2022-11-25T14:24:50.916Z,23.60
2022-11-25T14:27:28.618Z,25.10
2022-11-25T14:30:10.833Z,21.10
2022-11-25T14:32:58.418Z,19.50
2022-11-25T14:35:45.736Z,22.27
2022-11-25T14:38:44.788Z,17.33
2022-11-25T14:41:19.962Z,23.37
2022-11-25T14:44:15.292Z,18.37
2022-11-25T14:46:59.160Z,17.90
2022-11-25T14:50:05.269Z,20.70
2022-11-25T14:52:36.947Z,21.13
2022-11-25T14:55:06.396Z,17.97
2022-11-25T14:57:37.847Z,14.33
2022-11-25T15:00:10.188Z,18.40
2022-11-25T15:02:42.441Z,22.40
2022-11-25T15:05:16.407Z,22.33
2022-11-25T15:07:56.610Z,17.40
2022-11-25T15:10:39.830Z,27.63
2022-11-25T15:13:38.936Z,28.00
2022-11-25T15:16:17.853Z,15.50
2022-11-25T15:18:57.058Z,17.57
2022-11-25T15:21:31.894Z,12.33
2022-11-25T15:23:59.521Z,19.43
2022-11-25T15:26:30.672Z,16.37
2022-11-25T15:29:13.919Z,17.13
2022-11-25T15:31:42.103Z,23.10
2022-11-25T15:34:13.566Z,21.53
2022-11-25T15:36:40.830Z,24.87
2022-11-25T15:39:19.645Z,20.63
2022-11-25T15:41:57.768Z,24.13
2022-11-25T15:44:29.171Z,22.30
2022-11-25T15:47:22.640Z,24.80
2022-11-25T15:50:01.307Z,19.30
2022-11-25T15:52:33.330Z,21.53
2022-11-25T15:55:20.691Z,21.47
2022-11-25T15:57:51.712Z,20.10
2022-11-25T16:00:23.219Z,19.53
2022-11-25T16:02:53.964Z,19.07
2022-11-25T16:05:35.424Z,23.73
2022-11-25T16:08:18.609Z,27.27
2022-11-25T16:10:45.450Z,22.83
2022-11-25T16:13:25.632Z,18.27
2022-11-25T16:16:08.029Z,17.33
2022-11-25T16:19:02.621Z,21.53
2022-11-25T16:21:35.634Z,29.03
2022-11-25T16:24:05.472Z,28.93
2022-11-25T16:26:40.673Z,27.13
2022-11-25T16:29:27.436Z,28.07
2022-11-25T16:31:54.421Z,48.43
2022-11-25T16:34:24.151Z,25.30
2022-11-25T16:36:51.086Z,25.67
2022-11-25T16:39:17.996Z,16.77
2022-11-25T16:41:56.015Z,20.73
2022-11-25T16:44:26.225Z,21.47
2022-11-25T16:46:54.100Z,24.27
2022-11-25T16:49:22.684Z,31.20
2022-11-25T16:51:50.939Z,26.50
2022-11-25T16:54:22.963Z,22.30
2022-11-25T16:56:54.900Z,27.80
2022-11-25T16:59:35.896Z,25.30
2022-11-25T17:02:03.430Z,25.63
2022-11-25T17:04:30.697Z,22.33
2022-11-25T17:07:30.999Z,24.00
2022-11-25T17:09:45.426Z,27.87
2022-11-25T17:12:26.418Z,23.77
2022-11-25T17:14:53.524Z,27.83
2022-11-25T17:17:25.286Z,24.20
2022-11-25T17:19:53.406Z,27.10
2022-11-25T17:22:24.559Z,29.83
2022-11-25T17:24:51.835Z,29.90
2022-11-25T17:27:30.370Z,31.27
2022-11-25T17:30:00.925Z,46.30
2022-11-25T17:32:28.145Z,46.50
2022-11-25T17:34:55.143Z,45.27
2022-11-25T17:37:24.691Z,31.30
2022-11-25T17:39:53.548Z,42.70
2022-11-25T17:42:33.101Z,38.03
2022-11-25T17:45:00.912Z,29.93
2022-11-25T17:47:27.968Z,46.10
2022-11-25T17:49:55.240Z,37.63
2022-11-25T17:52:22.335Z,28.77
2022-11-25T17:54:49.299Z,32.43
2022-11-25T17:57:21.753Z,26.53
2022-11-25T17:59:49.158Z,27.53
2022-11-25T18:02:19.460Z,21.97
2022-11-25T18:04:46.583Z,27.97
2022-11-25T18:07:13.724Z,26.43
2022-11-25T18:09:41.010Z,21.47
2022-11-25T18:12:15.138Z,28.13
2022-11-25T18:14:43.011Z,28.97
2022-11-25T18:17:16.761Z,34.20
2022-11-25T18:19:44.118Z,24.60
2022-11-25T18:22:17.923Z,24.50
2022-11-25T18:24:45.286Z,23.50
2022-11-25T18:27:27.436Z,21.73
2022-11-25T18:29:55.826Z,32.50
2022-11-25T18:32:24.003Z,31.67
2022-11-25T18:34:51.934Z,37.07
2022-11-25T18:37:18.998Z,36.77
2022-11-25T18:39:46.620Z,44.63
2022-11-25T18:42:40.698Z,32.73
2022-11-25T18:45:19.903Z,35.43
2022-11-25T18:47:47.490Z,35.70
2022-11-25T18:50:20.609Z,37.77
2022-11-25T18:52:48.519Z,57.77
2022-11-25T18:55:18.784Z,65.40
2022-11-25T18:57:49.478Z,50.57
2022-11-25T19:00:33.162Z,44.63
2022-11-25T19:03:00.629Z,43.97
2022-11-25T19:05:33.484Z,48.17
2022-11-25T19:08:00.931Z,42.83
2022-11-25T19:10:32.058Z,48.03
2022-11-25T19:13:03.963Z,36.90
2022-11-25T19:15:31.170Z,38.67
2022-11-25T19:18:01.212Z,53.20
2022-11-25T19:20:30.219Z,43.30
2022-11-25T19:23:00.896Z,38.67
2022-11-25T19:25:28.517Z,38.93
2022-11-25T19:27:59.482Z,32.67
2022-11-25T19:30:31.202Z,39.40
2022-11-25T19:33:00.014Z,36.67
2022-11-25T19:35:34.086Z,33.10
2022-11-25T19:38:01.199Z,30.23
2022-11-25T19:40:34.710Z,22.43
2022-11-25T19:43:04.757Z,27.33
2022-11-25T19:45:32.392Z,35.37
2022-11-25T19:48:06.022Z,42.90
2022-11-25T19:50:35.559Z,54.63
2022-11-25T19:53:02.509Z,45.40
2022-11-25T19:55:29.981Z,37.00
2022-11-25T19:57:57.653Z,46.23
2022-11-25T20:00:25.584Z,48.23
2022-11-25T20:02:54.885Z,44.47
2022-11-25T20:05:33.407Z,45.47
2022-11-25T20:08:01.179Z,44.53
2022-11-25T20:10:31.903Z,48.10
2022-11-25T20:12:59.881Z,46.80
2022-11-25T20:15:26.976Z,42.20
2022-11-25T20:17:59.004Z,41.90
2022-11-25T20:20:33.295Z,35.67
2022-11-25T20:23:05.780Z,39.10
2022-11-25T20:25:43.221Z,38.57
2022-11-25T20:28:30.052Z,37.43
2022-11-25T20:30:59.265Z,38.07
2022-11-25T20:33:27.481Z,40.47
2022-11-25T20:36:05.071Z,44.07
2022-11-25T20:38:34.304Z,48.40
2022-11-25T20:41:01.947Z,50.43
2022-11-25T20:43:36.843Z,47.70
2022-11-25T20:46:04.231Z,56.13
2022-11-25T20:48:31.804Z,49.30
2022-11-25T20:51:03.473Z,43.57
2022-11-25T20:53:32.419Z,38.43
2022-11-25T20:56:00.224Z,40.70
2022-11-25T20:58:30.575Z,39.83
2022-11-25T21:00:58.764Z,42.87
2022-11-25T21:03:26.750Z,46.43
2022-11-25T21:05:55.456Z,38.30
2022-11-25T21:08:27.500Z,38.30
2022-11-25T21:10:57.701Z,37.57
2022-11-25T21:13:30.332Z,38.40
2022-11-25T21:15:57.721Z,35.70
2022-11-25T21:18:25.456Z,30.17
2022-11-25T21:20:54.645Z,33.73
2022-11-25T21:23:33.535Z,37.13
2022-11-25T21:26:10.424Z,38.93
2022-11-25T21:28:42.180Z,44.20
2022-11-25T21:31:21.385Z,37.40
2022-11-25T21:33:49.676Z,33.10
2022-11-25T21:36:24.284Z,42.07
2022-11-25T21:39:00.394Z,32.93
2022-11-25T21:41:27.392Z,43.00
2022-11-25T21:43:54.354Z,37.53
2022-11-25T21:46:26.603Z,40.37
2022-11-25T21:48:53.623Z,35.63
2022-11-25T21:51:24.194Z,36.87
2022-11-25T21:53:52.336Z,33.67
2022-11-25T21:56:33.952Z,35.33
2022-11-25T21:59:04.182Z,32.07
2022-11-25T22:01:31.212Z,33.87
2022-11-25T22:03:58.618Z,31.47
2022-11-25T22:06:28.566Z,38.60
2022-11-25T22:08:59.736Z,39.17
2022-11-25T22:11:37.429Z,42.63
2022-11-25T22:14:28.818Z,41.03
2022-11-25T22:16:57.069Z,44.37
2022-11-25T22:19:26.689Z,46.50
2022-11-25T22:21:54.842Z,39.80
2022-11-25T22:24:22.514Z,50.10
2022-11-25T22:26:56.156Z,44.33
2022-11-25T22:29:30.912Z,41.23
2022-11-25T22:31:57.908Z,38.30
2022-11-25T22:34:25.709Z,36.33
2022-11-25T22:36:52.800Z,38.07
2022-11-25T22:39:25.960Z,39.87
2022-11-25T22:41:56.589Z,42.03
2022-11-25T22:44:42.922Z,43.73
2022-11-25T22:47:28.974Z,37.53
2022-11-25T22:49:56.363Z,43.23
2022-11-25T22:52:28.419Z,43.60
2022-11-25T22:54:58.546Z,41.90
2022-11-25T22:57:25.465Z,37.47
2022-11-25T22:59:52.402Z,41.40
2022-11-25T23:02:33.130Z,44.23
2022-11-25T23:05:00.309Z,33.97
2022-11-25T23:07:27.559Z,39.33
2022-11-25T23:09:56.150Z,43.63
2022-11-25T23:12:23.038Z,40.60
2022-11-25T23:14:50.181Z,50.03
2022-11-25T23:17:22.639Z,40.00
2022-11-25T23:19:51.630Z,47.10
2022-11-25T23:22:19.657Z,35.90
2022-11-25T23:24:48.637Z,48.63
2022-11-25T23:27:16.579Z,45.60
2022-11-25T23:29:44.931Z,37.07
2022-11-25T23:32:19.283Z,32.63
2022-11-25T23:34:49.381Z,39.80
2022-11-25T23:37:16.393Z,35.60
2022-11-25T23:39:45.240Z,38.73
2022-11-25T23:42:18.006Z,28.40
2022-11-25T23:44:45.514Z,28.90
2022-11-25T23:47:18.900Z,25.13
2022-11-25T23:49:49.769Z,26.23
2022-11-25T23:52:28.035Z,27.83
2022-11-25T23:54:55.705Z,20.73
2022-11-25T23:57:29.583Z,24.70
2022-11-25T23:59:56.643Z,19.47
